Time;durP1;ratioP1;P1;durP2;ratioP2;P2;SDS_P1;SDS_P2;PMS_P1;PMS_P2;Temp;Humidity;BMP_temperature;BMP_pressure;BME280_temperature;BME280_humidity;BME280_pressure;Samples;Min_cycle;Max_cycle;Signal;HPM_P1;HPM_P2
2021/03/11 00:00:09;;;;;;;16.33;9.83;;;;;;;4.71;56.85;95825.38;4908045;29;20102;-77
2021/03/11 00:02:39;;;;;;;16.80;9.30;;;;;;;4.70;57.33;95819.34;4898096;29;20087;-78
2021/03/11 00:05:08;;;;;;;15.37;9.60;;;;;;;4.78;56.47;95821.28;4889682;29;20047;-78
2021/03/11 00:07:34;;;;;;;13.43;9.20;;;;;;;4.82;56.32;95814.84;4923810;29;20493;-77
2021/03/11 00:10:00;;;;;;;15.40;9.40;;;;;;;4.78;56.54;95813.47;4915970;29;20189;-78
2021/03/11 00:12:25;;;;;;;15.33;8.80;;;;;;;4.92;55.52;95813.06;4896522;29;20028;-78
2021/03/11 00:14:51;;;;;;;14.13;8.40;;;;;;;5.12;54.12;95810.50;4911482;29;20071;-78
2021/03/11 00:17:17;;;;;;;14.77;8.30;;;;;;;5.19;54.07;95819.41;4902089;29;20131;-78
2021/03/11 00:19:44;;;;;;;12.90;7.67;;;;;;;5.28;53.79;95815.19;4899399;29;20083;-78
2021/03/11 00:22:10;;;;;;;13.50;7.23;;;;;;;5.28;53.96;95816.00;4888664;29;20028;-78
2021/03/11 00:24:35;;;;;;;14.90;7.37;;;;;;;5.34;53.84;95812.03;4919024;29;20103;-78
2021/03/11 00:27:01;;;;;;;12.63;7.33;;;;;;;5.38;52.85;95803.78;4897645;29;20035;-78
2021/03/11 00:29:28;;;;;;;12.50;8.40;;;;;;;5.46;53.00;95805.69;4898724;29;20557;-78
2021/03/11 00:31:54;;;;;;;11.90;6.97;;;;;;;5.40;53.04;95807.09;4911158;29;20112;-78
2021/03/11 00:34:20;;;;;;;12.70;7.57;;;;;;;5.52;52.72;95812.16;4914291;29;20423;-78
2021/03/11 00:36:46;;;;;;;13.83;7.43;;;;;;;5.58;52.75;95809.00;4908828;29;20040;-78
2021/03/11 00:39:12;;;;;;;11.37;7.30;;;;;;;5.53;52.70;95816.41;4902090;29;20686;-77
2021/03/11 00:41:38;;;;;;;11.23;6.60;;;;;;;5.44;53.05;95808.47;4900055;29;20088;-78
2021/03/11 00:44:04;;;;;;;14.83;7.70;;;;;;;5.48;52.75;95810.78;4905519;29;20090;-78
2021/03/11 00:46:30;;;;;;;13.30;7.70;;;;;;;5.47;53.14;95807.38;4910458;29;20027;-78
2021/03/11 00:48:56;;;;;;;11.40;7.30;;;;;;;5.47;52.96;95809.16;4897424;29;20036;-78
2021/03/11 00:51:21;;;;;;;11.90;7.20;;;;;;;5.42;53.33;95804.34;4912614;29;20032;-78
2021/03/11 00:53:47;;;;;;;11.07;7.13;;;;;;;5.41;53.40;95811.34;4896751;29;20055;-78
2021/03/11 00:56:13;;;;;;;13.33;7.60;;;;;;;5.37;53.50;95809.97;4908365;29;20155;-78
2021/03/11 00:58:39;;;;;;;13.30;8.10;;;;;;;5.37;53.54;95796.13;4918000;29;20119;-78
2021/03/11 01:01:05;;;;;;;11.80;6.87;;;;;;;5.38;53.55;95798.56;4920097;29;20023;-78
2021/03/11 01:03:42;;;;;;;13.97;8.37;;;;;;;5.33;53.75;95787.75;4916039;29;20036;-79
2021/03/11 01:06:08;;;;;;;14.00;8.63;;;;;;;5.29;53.87;95781.13;4893385;29;20043;-78
2021/03/11 01:08:38;;;;;;;14.40;7.90;;;;;;;5.31;53.89;95776.63;4903480;29;20076;-78
2021/03/11 01:11:04;;;;;;;14.87;8.10;;;;;;;5.35;53.67;95770.16;4906184;29;20036;-78
2021/03/11 01:13:30;;;;;;;15.70;8.43;;;;;;;5.39;53.45;95778.53;4913054;29;20027;-78
2021/03/11 01:15:55;;;;;;;14.30;8.40;;;;;;;5.32;53.86;95778.25;4926494;29;20028;-78
2021/03/11 01:18:22;;;;;;;13.30;8.17;;;;;;;5.29;54.20;95773.31;4904142;29;20055;-78
2021/03/11 01:20:48;;;;;;;14.87;8.67;;;;;;;5.40;53.04;95764.56;4911767;29;20028;-78
2021/03/11 01:23:13;;;;;;;13.60;8.10;;;;;;;5.38;53.92;95759.47;4924164;29;20083;-78
2021/03/11 01:25:39;;;;;;;13.40;8.03;;;;;;;5.43;53.47;95759.03;4913680;29;20036;-78
2021/03/11 01:28:05;;;;;;;12.33;7.93;;;;;;;5.35;54.34;95751.09;4911208;29;20035;-78
2021/03/11 01:30:30;;;;;;;15.43;8.57;;;;;;;5.34;53.93;95749.47;4900491;29;20039;-78
2021/03/11 01:32:56;;;;;;;14.03;8.53;;;;;;;5.36;53.89;95752.72;4909965;29;20028;-78
2021/03/11 01:35:22;;;;;;;19.00;9.57;;;;;;;5.35;54.16;95738.88;4911834;29;20040;-78
2021/03/11 01:37:47;;;;;;;13.97;8.90;;;;;;;5.57;52.91;95729.13;4922302;29;20039;-77
2021/03/11 01:40:13;;;;;;;13.23;8.03;;;;;;;5.56;53.18;95727.44;4904559;29;20044;-78
2021/03/11 01:42:39;;;;;;;14.20;8.20;;;;;;;5.48;53.71;95738.59;4913938;29;20738;-77
2021/03/11 01:45:07;;;;;;;14.30;8.67;;;;;;;5.52;53.69;95731.31;4928625;29;20642;-78
2021/03/11 01:47:33;;;;;;;15.93;8.50;;;;;;;5.44;54.14;95732.84;4906111;29;20071;-78
2021/03/11 01:49:58;;;;;;;13.80;8.07;;;;;;;5.43;54.16;95725.97;4927308;29;20059;-78
2021/03/11 01:52:24;;;;;;;16.07;9.60;;;;;;;5.45;54.11;95733.66;4923362;29;21023;-78
2021/03/11 01:54:50;;;;;;;15.00;9.90;;;;;;;5.43;53.84;95741.63;4923924;29;20647;-78
2021/03/11 01:57:17;;;;;;;14.53;8.30;;;;;;;5.39;53.85;95732.41;4915192;29;20044;-78
2021/03/11 01:59:43;;;;;;;13.63;9.03;;;;;;;5.46;54.08;95731.88;4890216;29;20050;-78
2021/03/11 02:02:09;;;;;;;14.77;9.13;;;;;;;5.36;54.42;95735.28;4916520;29;20036;-78
2021/03/11 02:04:34;;;;;;;14.83;9.13;;;;;;;5.46;54.93;95727.47;4920313;29;20111;-78
2021/03/11 02:07:00;;;;;;;16.37;9.43;;;;;;;5.38;55.21;95720.34;4919925;29;20401;-78
2021/03/11 02:09:26;;;;;;;16.30;9.00;;;;;;;5.37;54.87;95718.72;4906214;29;20039;-78
2021/03/11 02:12:02;;;;;;;14.33;8.23;;;;;;;5.46;54.42;95711.00;4926918;29;20051;-78
2021/03/11 02:14:41;;;;;;;11.87;7.27;;;;;;;5.47;55.82;95697.00;4921117;29;20090;-78
2021/03/11 02:17:08;;;;;;;15.30;7.00;;;;;;;5.50;55.83;95697.56;4906306;29;20122;-78
2021/03/11 02:19:39;;;;;;;12.13;7.40;;;;;;;5.47;57.10;95697.00;4895201;29;20432;-78
2021/03/11 02:22:08;;;;;;;13.20;7.00;;;;;;;5.43;57.33;95686.88;4928823;29;20067;-77
2021/03/11 02:25:05;;;;;;;12.67;8.33;;;;;;;5.49;58.13;95671.59;4898193;29;20982;-77
2021/03/11 02:28:01;;;;;;;15.20;7.93;;;;;;;5.47;58.14;95647.47;4909414;29;20051;-78
2021/03/11 02:30:27;;;;;;;12.20;7.20;;;;;;;5.46;58.91;95645.81;4918475;29;20039;-77
2021/03/11 02:32:54;;;;;;;12.27;7.00;;;;;;;5.42;58.81;95640.88;4890329;29;20031;-78
2021/03/11 02:35:21;;;;;;;11.00;6.67;;;;;;;5.45;58.92;95642.38;4912578;29;20040;-78
2021/03/11 02:37:51;;;;;;;11.37;7.10;;;;;;;5.43;59.65;95645.16;4903288;29;20087;-78
2021/03/11 02:40:34;;;;;;;12.50;7.10;;;;;;;5.45;59.21;95639.78;4916276;29;20040;-78
2021/03/11 02:43:09;;;;;;;12.88;7.40;;;;;;;5.51;59.08;95620.13;4911598;29;20042;-78
2021/03/11 02:45:35;;;;;;;16.50;7.53;;;;;;;5.43;60.10;95620.81;4896395;29;20132;-78
2021/03/11 02:48:05;;;;;;;13.93;7.17;;;;;;;5.40;59.98;95618.53;4922894;29;20622;-78
2021/03/11 02:50:31;;;;;;;11.77;7.50;;;;;;;5.37;60.53;95614.41;4919959;29;20039;-78
2021/03/11 02:52:59;;;;;;;13.27;6.83;;;;;;;5.37;60.40;95614.41;4919050;29;20035;-78
2021/03/11 02:55:28;;;;;;;15.33;7.47;;;;;;;5.38;60.55;95603.00;4919063;29;20043;-78
2021/03/11 02:57:56;;;;;;;12.37;7.40;;;;;;;5.34;60.70;95598.25;4910010;29;20059;-78
2021/03/11 03:00:23;;;;;;;13.30;7.43;;;;;;;5.30;60.87;95586.44;4885849;29;20090;-77
2021/03/11 03:02:50;;;;;;;11.53;7.40;;;;;;;5.30;61.06;95576.00;4890666;29;20034;-78
2021/03/11 03:05:24;;;;;;;14.80;8.00;;;;;;;5.41;60.54;95566.22;4902454;29;20063;-78
2021/03/11 03:07:51;;;;;;;12.87;6.83;;;;;;;5.33;60.46;95555.72;4891357;29;20060;-78
2021/03/11 03:10:23;;;;;;;12.47;7.20;;;;;;;5.29;60.79;95562.16;4923224;29;20035;-78
2021/03/11 03:12:55;;;;;;;13.43;8.13;;;;;;;5.29;60.75;95549.09;4921400;29;20398;-78
2021/03/11 03:15:22;;;;;;;13.87;7.93;;;;;;;5.29;60.40;95549.09;4925065;29;20036;-78
2021/03/11 03:17:49;;;;;;;12.90;7.83;;;;;;;5.31;59.86;95541.97;4914361;29;20032;-78
2021/03/11 03:20:17;;;;;;;12.50;7.63;;;;;;;5.28;59.84;95531.03;4910875;29;20078;-77
2021/03/11 03:22:43;;;;;;;12.37;7.30;;;;;;;5.25;60.01;95534.72;4915079;29;20042;-78
2021/03/11 03:25:11;;;;;;;14.00;8.50;;;;;;;5.24;59.98;95533.09;4913483;29;20032;-78
2021/03/11 03:27:38;;;;;;;18.73;8.80;;;;;;;5.15;60.66;95521.72;4926244;29;20032;-78
2021/03/11 03:30:08;;;;;;;12.57;7.43;;;;;;;5.10;61.20;95523.97;4919237;29;20066;-78
2021/03/11 03:32:35;;;;;;;14.53;8.43;;;;;;;5.11;60.68;95519.56;4921463;29;20098;-78
2021/03/11 03:35:02;;;;;;;14.27;8.03;;;;;;;4.96;61.66;95519.19;4925338;29;20111;-78
2021/03/11 03:37:28;;;;;;;13.00;8.30;;;;;;;4.97;61.22;95513.84;4905592;29;20102;-78
2021/03/11 03:39:54;;;;;;;13.67;8.27;;;;;;;4.99;60.88;95512.88;4911181;29;20027;-77
2021/03/11 03:42:19;;;;;;;13.47;8.37;;;;;;;4.96;60.52;95512.22;4916810;29;20044;-78
2021/03/11 03:44:47;;;;;;;13.20;8.27;;;;;;;4.99;60.53;95505.06;4904333;29;20075;-78
2021/03/11 03:47:15;;;;;;;15.37;8.80;;;;;;;4.90;60.65;95504.97;4926989;29;20043;-78
2021/03/11 03:49:41;;;;;;;16.47;9.50;;;;;;;4.86;60.83;95501.00;4898613;29;20126;-78
2021/03/11 03:52:08;;;;;;;13.17;9.17;;;;;;;4.91;60.71;95501.38;4895116;29;20107;-78
2021/03/11 03:54:40;;;;;;;15.23;9.50;;;;;;;4.95;61.08;95488.91;4912459;29;20027;-77
2021/03/11 03:57:20;;;;;;;14.07;8.73;;;;;;;4.89;61.23;95495.47;4923709;29;20115;-77
2021/03/11 03:59:50;;;;;;;14.50;9.07;;;;;;;5.03;60.77;95482.97;4917020;29;20032;-77
2021/03/11 04:02:17;;;;;;;13.63;7.73;;;;;;;5.07;60.91;95476.53;4921297;29;20036;-78
2021/03/11 04:04:49;;;;;;;13.10;7.10;;;;;;;5.27;60.17;95479.84;4902895;29;20063;-78
2021/03/11 04:07:20;;;;;;;14.63;7.47;;;;;;;5.24;60.54;95473.13;4924577;29;20819;-78
2021/03/11 04:09:46;;;;;;;12.33;7.17;;;;;;;5.25;60.53;95476.56;4886161;29;20040;-78
2021/03/11 04:12:15;;;;;;;10.40;6.30;;;;;;;5.34;59.70;95479.13;4914689;29;20039;-78
2021/03/11 04:14:41;;;;;;;12.83;6.80;;;;;;;5.34;60.08;95481.72;4907345;29;20047;-78
2021/03/11 04:17:09;;;;;;;10.27;6.10;;;;;;;5.46;59.83;95481.53;4898758;29;20552;-78
2021/03/11 04:19:36;;;;;;;11.33;5.70;;;;;;;5.54;59.61;95464.19;4914571;29;20035;-77
2021/03/11 04:22:04;;;;;;;9.83;5.80;;;;;;;5.63;59.27;95463.31;4899085;29;20024;-78
2021/03/11 04:24:31;;;;;;;11.60;6.13;;;;;;;5.63;59.04;95470.28;4920612;29;20034;-78
2021/03/11 04:27:06;;;;;;;14.00;6.43;;;;;;;5.63;58.98;95478.13;4908231;29;20179;-78
2021/03/11 04:29:33;;;;;;;11.07;6.37;;;;;;;5.65;58.99;95460.53;4905417;29;20035;-78
2021/03/11 04:31:59;;;;;;;12.83;6.60;;;;;;;5.74;58.64;95453.63;4912672;29;20094;-78
2021/03/11 04:34:27;;;;;;;11.00;6.87;;;;;;;5.72;58.73;95447.72;4924619;29;20413;-78
2021/03/11 04:36:54;;;;;;;9.73;5.77;;;;;;;5.70;58.80;95452.25;4923433;29;20086;-78
2021/03/11 04:39:22;;;;;;;12.70;6.50;;;;;;;5.73;58.59;95458.00;4910603;29;20145;-78
2021/03/11 04:41:51;;;;;;;12.27;6.83;;;;;;;5.76;58.47;95455.09;4900014;29;20047;-78
2021/03/11 04:44:17;;;;;;;12.33;6.53;;;;;;;5.81;58.18;95447.66;4898302;29;20055;-78
2021/03/11 04:46:43;;;;;;;10.23;6.50;;;;;;;5.74;58.49;95457.06;4920324;29;20020;-78
2021/03/11 04:49:10;;;;;;;12.87;6.90;;;;;;;5.75;58.54;95448.25;4916931;29;20124;-78
2021/03/11 04:51:38;;;;;;;10.87;6.03;;;;;;;5.81;58.21;95454.66;4927894;29;20099;-77
2021/03/11 04:54:04;;;;;;;12.83;6.80;;;;;;;5.77;58.53;95450.69;4899711;29;20066;-78
2021/03/11 04:56:29;;;;;;;13.53;6.73;;;;;;;5.73;59.05;95449.34;4914864;29;20698;-78
2021/03/11 04:58:55;;;;;;;10.47;6.33;;;;;;;5.73;58.87;95442.34;4890591;29;20043;-78
2021/03/11 05:01:24;;;;;;;12.53;5.90;;;;;;;5.67;59.14;95445.56;4897334;29;20075;-78
2021/03/11 05:03:50;;;;;;;11.77;6.97;;;;;;;5.74;59.47;95441.41;4913967;29;20023;-78
2021/03/11 05:06:16;;;;;;;10.60;6.53;;;;;;;5.69;59.77;95443.63;4896715;29;20032;-78
2021/03/11 05:08:42;;;;;;;13.30;7.27;;;;;;;5.72;59.26;95445.94;4899759;29;20030;-78
2021/03/11 05:11:10;;;;;;;14.90;7.53;;;;;;;5.69;60.27;95454.06;4918902;29;20040;-78
2021/03/11 05:13:36;;;;;;;10.13;6.40;;;;;;;5.67;60.88;95458.63;4929173;29;20429;-78
2021/03/11 05:16:02;;;;;;;14.10;6.23;;;;;;;5.71;60.25;95459.13;4901698;29;20119;-77
2021/03/11 05:18:28;;;;;;;14.20;5.50;;;;;;;5.76;59.62;95456.88;4928158;29;20083;-78
2021/03/11 05:20:54;;;;;;;10.33;5.60;;;;;;;6.12;58.60;95457.75;4903919;29;20039;-78
2021/03/11 05:23:20;;;;;;;11.53;4.80;;;;;;;6.11;59.48;95453.50;4917055;29;20040;-78
2021/03/11 05:25:47;;;;;;;11.03;5.23;;;;;;;6.25;60.33;95457.34;4907315;29;20042;-77
2021/03/11 05:28:13;;;;;;;9.17;4.83;;;;;;;6.22;61.22;95461.09;4907313;29;20638;-77
2021/03/11 05:30:39;;;;;;;8.87;5.00;;;;;;;6.21;61.73;95451.63;4898545;29;20453;-77
2021/03/11 05:33:05;;;;;;;11.97;5.37;;;;;;;6.24;61.51;95460.94;4926479;29;20092;-77
2021/03/11 05:35:31;;;;;;;9.57;5.20;;;;;;;6.11;62.90;95458.72;4908186;29;20586;-77
2021/03/11 05:37:57;;;;;;;9.90;5.40;;;;;;;6.09;63.20;95460.66;4909531;29;20115;-78
2021/03/11 05:40:24;;;;;;;9.60;4.27;;;;;;;6.08;64.57;95457.22;4919302;29;20042;-78
2021/03/11 05:42:53;;;;;;;10.13;5.60;;;;;;;5.99;65.19;95452.06;4898043;29;20055;-77
2021/03/11 05:45:19;;;;;;;13.77;7.13;;;;;;;5.96;66.33;95447.97;4908636;29;20079;-77
2021/03/11 05:47:46;;;;;;;11.97;6.07;;;;;;;5.93;67.05;95444.84;4910568;29;20032;-77
2021/03/11 05:50:13;;;;;;;17.07;8.63;;;;;;;5.96;66.96;95452.38;4909459;29;20040;-77
2021/03/11 05:52:39;;;;;;;13.17;8.07;;;;;;;5.90;67.57;95446.78;4908305;29;20347;-77
2021/03/11 05:55:07;;;;;;;10.60;5.57;;;;;;;5.86;68.77;95436.75;4924666;29;20071;-78
2021/03/11 05:57:33;;;;;;;10.67;5.17;;;;;;;5.83;68.88;95437.06;4911937;29;20038;-77
2021/03/11 05:59:59;;;;;;;12.73;6.27;;;;;;;5.81;68.99;95429.41;4892245;29;20043;-78
2021/03/11 06:02:26;;;;;;;9.40;5.17;;;;;;;5.80;69.76;95424.31;4916388;29;20042;-78
2021/03/11 06:04:53;;;;;;;10.57;5.50;;;;;;;5.85;70.42;95425.50;4905335;29;20028;-77
2021/03/11 06:07:22;;;;;;;12.87;6.07;;;;;;;5.89;70.39;95426.84;4914405;29;20050;-77
2021/03/11 06:09:56;;;;;;;10.57;5.93;;;;;;;5.94;70.53;95433.47;4919344;29;20027;-77
2021/03/11 06:12:27;;;;;;;13.57;5.00;;;;;;;5.99;70.23;95437.22;4901050;29;20533;-78
2021/03/11 06:14:58;;;;;;;9.10;4.73;;;;;;;5.97;71.02;95433.13;4935966;29;20055;-78
2021/03/11 06:17:29;;;;;;;9.83;5.80;;;;;;;5.98;71.36;95426.97;4936390;29;20063;-78
2021/03/11 06:19:55;;;;;;;12.53;7.53;;;;;;;5.95;71.56;95427.25;4950999;29;20050;-78
2021/03/11 06:22:21;;;;;;;14.60;8.47;;;;;;;5.98;71.45;95434.78;4911139;29;20086;-77
2021/03/11 06:24:47;;;;;;;10.43;5.80;;;;;;;5.97;71.36;95418.31;4902471;29;20046;-77
2021/03/11 06:27:12;;;;;;;9.30;5.70;;;;;;;6.00;71.16;95412.78;4924037;29;20032;-78
2021/03/11 06:29:40;;;;;;;8.07;4.77;;;;;;;6.04;70.75;95408.91;4909842;29;20543;-77
2021/03/11 06:32:07;;;;;;;8.00;4.17;;;;;;;6.12;70.00;95401.13;4903409;29;20028;-77
2021/03/11 06:34:39;;;;;;;10.47;4.73;;;;;;;6.23;69.34;95380.97;4899367;29;20028;-77
2021/03/11 06:37:06;;;;;;;9.87;5.13;;;;;;;6.33;69.26;95376.44;4923334;29;20036;-77
2021/03/11 06:39:34;;;;;;;9.60;4.33;;;;;;;6.42;68.59;95379.94;4903420;29;20030;-77
2021/03/11 06:42:00;;;;;;;9.97;5.73;;;;;;;6.46;68.56;95382.09;4908841;29;20438;-78
2021/03/11 06:44:40;;;;;;;7.83;4.77;;;;;;;6.58;67.63;95380.84;4906966;29;20036;-77
2021/03/11 06:47:13;;;;;;;9.40;4.87;;;;;;;6.59;68.31;95381.66;4928063;29;20087;-77
2021/03/11 06:49:58;;;;;;;9.73;4.83;;;;;;;6.68;67.55;95377.31;4901413;29;20209;-77
2021/03/11 06:52:24;;;;;;;9.20;3.97;;;;;;;6.77;67.65;95378.97;4916464;29;20493;-79
2021/03/11 06:55:07;;;;;;;8.30;4.60;;;;;;;6.89;67.05;95366.44;4924870;29;20058;-77
2021/03/11 06:57:35;;;;;;;8.63;4.20;;;;;;;6.88;67.01;95372.66;4929794;29;20040;-77
2021/03/11 07:00:13;;;;;;;10.50;4.30;;;;;;;6.92;67.00;95361.72;4930583;29;20111;-78
2021/03/11 07:02:54;;;;;;;9.90;4.47;;;;;;;7.03;66.51;95358.00;4885350;29;20115;-78
2021/03/11 07:05:22;;;;;;;10.23;4.00;;;;;;;7.01;66.78;95359.97;4927257;29;20062;-78
2021/03/11 07:07:48;;;;;;;8.17;3.63;;;;;;;7.07;66.90;95356.69;4901333;29;20047;-77
2021/03/11 07:10:28;;;;;;;6.17;3.50;;;;;;;7.16;67.25;95363.59;4917867;29;20036;-77
2021/03/11 07:12:55;;;;;;;8.27;3.90;;;;;;;7.22;67.33;95370.00;4899672;29;20035;-78
2021/03/11 07:15:23;;;;;;;6.67;3.30;;;;;;;7.26;67.39;95364.28;4908189;29;20489;-78
2021/03/11 07:17:50;;;;;;;9.23;3.33;;;;;;;7.29;67.15;95366.56;4926242;29;20047;-77
2021/03/11 07:20:19;;;;;;;8.60;3.47;;;;;;;7.36;67.30;95369.38;4932595;29;20028;-78
2021/03/11 07:23:05;;;;;;;6.90;2.53;;;;;;;7.51;66.89;95370.38;4896528;29;20040;-78
2021/03/11 07:25:41;;;;;;;6.23;2.80;;;;;;;7.57;66.87;95366.28;4916793;29;20104;-78
2021/03/11 07:28:27;;;;;;;5.40;2.47;;;;;;;7.62;67.01;95365.81;4928836;29;20068;-77
2021/03/11 07:30:54;;;;;;;5.60;2.33;;;;;;;7.76;66.38;95376.44;4918977;29;20051;-78
2021/03/11 07:33:22;;;;;;;6.33;2.80;;;;;;;7.75;66.17;95374.81;4900818;29;20020;-78
2021/03/11 07:35:55;;;;;;;6.60;2.50;;;;;;;7.78;66.14;95384.97;4914682;29;20083;-78
2021/03/11 07:38:23;;;;;;;6.00;2.53;;;;;;;7.75;66.37;95374.00;4922971;29;20036;-77
2021/03/11 07:40:51;;;;;;;5.17;2.33;;;;;;;7.95;65.75;95358.78;4912690;29;20468;-78
2021/03/11 07:43:18;;;;;;;7.13;3.00;;;;;;;7.99;65.63;95345.19;4881139;29;20043;-77
2021/03/11 07:45:44;;;;;;;5.40;2.43;;;;;;;8.12;65.08;95349.94;4901314;29;20080;-77
2021/03/11 07:48:12;;;;;;;5.30;2.30;;;;;;;8.18;65.23;95349.28;4918333;29;20035;-77
2021/03/11 07:50:39;;;;;;;3.80;1.80;;;;;;;8.24;65.00;95347.78;4928257;29;20559;-76
2021/03/11 07:53:05;;;;;;;4.53;2.20;;;;;;;8.23;65.22;95352.22;4921684;29;20064;-77
2021/03/11 07:55:32;;;;;;;4.37;1.90;;;;;;;8.38;64.22;95347.13;4902759;29;20050;-77
2021/03/11 07:58:09;;;;;;;4.23;1.70;;;;;;;8.38;64.33;95354.97;4931219;29;20116;-77
2021/03/11 08:00:35;;;;;;;5.47;1.77;;;;;;;8.46;63.94;95362.03;4925629;29;20095;-77
2021/03/11 08:03:09;;;;;;;5.67;1.70;;;;;;;8.53;63.61;95352.50;4905313;29;20070;-77
2021/03/11 08:05:35;;;;;;;3.87;1.60;;;;;;;8.58;63.57;95344.94;4931000;29;20031;-77
2021/03/11 08:08:11;;;;;;;3.37;1.40;;;;;;;8.67;62.90;95343.94;4926059;29;20034;-77
2021/03/11 08:10:41;;;;;;;5.00;1.80;;;;;;;8.69;62.50;95351.66;4910460;29;20040;-77
2021/03/11 08:13:26;;;;;;;4.97;1.50;;;;;;;8.70;62.44;95351.47;4908812;29;20446;-77
2021/03/11 08:15:54;;;;;;;3.83;1.70;;;;;;;8.73;62.71;95340.66;4899936;29;20040;-77
2021/03/11 08:18:35;;;;;;;4.57;1.90;;;;;;;8.74;62.32;95333.59;4893997;29;20047;-77
2021/03/11 08:21:26;;;;;;;3.70;1.87;;;;;;;8.76;62.61;95351.78;4918760;29;20040;-77
2021/03/11 08:23:53;;;;;;;4.33;2.00;;;;;;;8.81;62.75;95350.28;4925395;29;20333;-77
2021/03/11 08:26:37;;;;;;;4.00;1.53;;;;;;;8.82;62.29;95354.56;4921040;29;20036;-76
2021/03/11 08:29:23;;;;;;;4.00;1.65;;;;;;;8.84;62.61;95334.19;4905361;29;20046;-77
2021/03/11 08:31:50;;;;;;;8.40;3.17;;;;;;;8.88;62.03;95329.44;4904856;29;20044;-77
2021/03/11 08:34:33;;;;;;;3.03;1.50;;;;;;;8.92;62.19;95321.06;4914754;29;20481;-77
2021/03/11 08:37:11;;;;;;;4.00;1.60;;;;;;;9.00;62.12;95328.06;4919207;29;20032;-77
2021/03/11 08:39:37;;;;;;;7.43;1.90;;;;;;;8.98;62.43;95322.97;4907143;29;20047;-78
2021/03/11 08:42:41;;;;;;;4.57;1.83;;;;;;;9.13;62.10;95323.09;4913872;29;20028;-78
2021/03/11 08:45:08;;;;;;;5.22;1.73;;;;;;;9.21;61.68;95307.28;4927727;29;20405;-77
2021/03/11 08:47:34;;;;;;;4.43;1.90;;;;;;;9.23;61.37;95306.31;4915647;29;20036;-78
2021/03/11 08:50:02;;;;;;;3.03;1.60;;;;;;;9.33;61.47;95312.16;4914754;29;20063;-78
2021/03/11 08:52:42;;;;;;;3.37;1.67;;;;;;;9.40;60.90;95295.53;4901985;29;20020;-77
2021/03/11 08:55:34;;;;;;;4.90;1.57;;;;;;;9.47;60.23;95287.78;4915087;29;20229;-78
2021/03/11 08:58:01;;;;;;;4.33;1.73;;;;;;;9.57;60.50;95283.09;4899474;29;20055;-77
2021/03/11 09:00:57;;;;;;;4.87;1.70;;;;;;;9.80;59.79;95269.16;4914764;29;20039;-77
2021/03/11 09:03:49;;;;;;;3.77;1.90;;;;;;;9.73;59.80;95258.53;4919120;29;20083;-78
2021/03/11 09:06:17;;;;;;;6.57;1.87;;;;;;;9.81;59.65;95255.81;4924761;29;20708;-77
2021/03/11 09:08:48;;;;;;;4.67;2.23;;;;;;;9.87;59.60;95230.66;4925823;29;20653;-78
2021/03/11 09:11:21;;;;;;;4.23;1.50;;;;;;;10.03;59.45;95230.50;4910028;29;20505;-77
2021/03/11 09:13:50;;;;;;;3.33;1.70;;;;;;;10.11;59.42;95238.28;4908710;29;20065;-78
2021/03/11 09:16:22;;;;;;;4.77;1.60;;;;;;;10.30;58.56;95233.53;4896271;29;20044;-77
2021/03/11 09:18:53;;;;;;;5.60;1.77;;;;;;;10.49;58.21;95235.59;4924054;29;20563;-78
2021/03/11 09:21:19;;;;;;;5.47;1.43;;;;;;;10.67;57.71;95224.69;4927328;29;20394;-78
2021/03/11 09:23:44;;;;;;;2.30;1.30;;;;;;;10.83;57.24;95221.84;4929003;29;20020;-78
2021/03/11 09:26:28;;;;;;;4.50;1.50;;;;;;;11.05;56.35;95224.50;4910475;29;20063;-78
2021/03/11 09:28:55;;;;;;;5.80;1.58;;;;;;;11.17;55.93;95230.09;4912968;29;20039;-77
2021/03/11 09:31:26;;;;;;;4.27;1.87;;;;;;;11.48;55.32;95242.94;4901023;29;20028;-77
2021/03/11 09:33:54;;;;;;;3.77;1.67;;;;;;;11.66;55.45;95224.03;4898916;29;20051;-78
2021/03/11 09:36:20;;;;;;;3.20;1.37;;;;;;;11.56;55.26;95219.09;4910326;29;20028;-78
2021/03/11 09:38:48;;;;;;;2.60;1.30;;;;;;;11.53;55.53;95222.09;4909156;29;20027;-78
2021/03/11 09:41:14;;;;;;;2.03;1.03;;;;;;;11.77;55.33;95234.06;4910179;29;20031;-78
2021/03/11 09:43:42;;;;;;;2.57;1.20;;;;;;;11.94;54.43;95243.34;4914459;29;20099;-78
2021/03/11 09:46:11;;;;;;;3.53;1.20;;;;;;;12.10;54.31;95244.03;4907343;29;20048;-77
2021/03/11 09:48:54;;;;;;;2.77;1.13;;;;;;;11.97;54.87;95234.22;4909629;29;20040;-77
2021/03/11 09:51:22;;;;;;;2.35;1.00;;;;;;;11.70;55.81;95249.81;4923413;29;20055;-77
2021/03/11 09:53:55;;;;;;;1.77;0.83;;;;;;;11.46;56.42;95244.94;4927969;29;20129;-78
2021/03/11 09:56:23;;;;;;;4.17;1.50;;;;;;;11.28;57.34;95234.84;4909743;29;20051;-78
2021/03/11 09:59:22;;;;;;;1.77;0.90;;;;;;;11.26;57.26;95242.09;4901452;29;20454;-77
2021/03/11 10:01:53;;;;;;;4.47;1.93;;;;;;;11.16;57.91;95236.34;4852820;29;20044;-77
2021/03/11 10:04:28;;;;;;;7.73;1.33;;;;;;;11.21;57.73;95242.69;4901167;29;20028;-77
2021/03/11 10:07:05;;;;;;;2.50;0.90;;;;;;;11.26;58.18;95231.59;4930827;29;20044;-77
2021/03/11 10:09:42;;;;;;;3.07;0.80;;;;;;;11.28;57.98;95226.97;4916823;29;20512;-77
2021/03/11 10:12:09;;;;;;;3.97;1.07;;;;;;;11.33;57.78;95227.19;4907757;29;20043;-77
2021/03/11 10:14:35;;;;;;;3.13;0.80;;;;;;;11.48;57.84;95220.06;4922890;29;20027;-77
2021/03/11 10:17:03;;;;;;;3.73;1.10;;;;;;;11.42;57.95;95212.09;4931201;29;20031;-77
2021/03/11 10:19:29;;;;;;;1.67;0.90;;;;;;;11.45;57.65;95220.44;4915980;29;20034;-77
2021/03/11 10:21:55;;;;;;;3.17;1.00;;;;;;;11.26;58.13;95229.75;4904415;29;20039;-78
2021/03/11 10:24:50;;;;;;;3.27;0.90;;;;;;;11.25;58.11;95214.97;4900391;29;20114;-77
2021/03/11 10:27:30;;;;;;;1.57;0.80;;;;;;;11.19;58.37;95210.47;4933000;29;20045;-77
2021/03/11 10:30:24;;;;;;;2.37;1.30;;;;;;;11.24;58.95;95229.16;4899633;29;20036;-77
2021/03/11 10:32:55;;;;;;;3.45;0.90;;;;;;;11.15;58.52;95217.13;4913763;29;20765;-77
2021/03/11 10:35:33;;;;;;;2.77;1.10;;;;;;;11.20;58.67;95212.13;4927189;29;20058;-77
2021/03/11 10:38:26;;;;;;;5.03;0.70;;;;;;;11.26;58.75;95218.41;4893698;29;20043;-77
2021/03/11 10:40:52;;;;;;;3.17;1.20;;;;;;;11.23;59.20;95208.28;4915239;29;20044;-77
2021/03/11 10:43:23;;;;;;;2.70;0.73;;;;;;;11.26;58.74;95202.63;4904420;29;20032;-77
2021/03/11 10:45:49;;;;;;;3.70;1.20;;;;;;;11.28;58.77;95208.53;4913497;29;20075;-77
2021/03/11 10:48:15;;;;;;;2.43;0.83;;;;;;;11.28;59.14;95208.53;4900017;29;20020;-77
2021/03/11 10:50:46;;;;;;;2.67;0.83;;;;;;;11.21;59.08;95211.09;4916518;29;20055;-77
2021/03/11 10:53:18;;;;;;;2.47;1.10;;;;;;;11.24;59.25;95208.09;4924651;29;20122;-77
2021/03/11 10:55:45;;;;;;;4.83;1.70;;;;;;;11.20;59.98;95208.63;4892971;29;20615;-77
2021/03/11 10:58:24;;;;;;;3.43;1.37;;;;;;;11.22;59.22;95204.81;4903402;29;20063;-77
2021/03/11 11:00:50;;;;;;;2.60;1.00;;;;;;;11.29;58.95;95213.59;4929956;29;20656;-77
2021/03/11 11:03:20;;;;;;;2.67;1.00;;;;;;;11.34;59.05;95210.41;4928197;29;20027;-78
2021/03/11 11:05:46;;;;;;;2.27;1.30;;;;;;;11.27;59.65;95207.72;4931426;29;20552;-78
2021/03/11 11:08:13;;;;;;;2.57;1.03;;;;;;;11.32;59.55;95218.47;4907488;29;20031;-77
2021/03/11 11:10:39;;;;;;;2.03;1.00;;;;;;;11.46;59.54;95215.97;4903005;29;20032;-77
2021/03/11 11:13:05;;;;;;;3.70;0.87;;;;;;;11.34;61.56;95220.94;4918784;29;20111;-78
2021/03/11 11:15:31;;;;;;;2.33;1.00;;;;;;;11.19;64.38;95223.63;4913674;29;20087;-77
2021/03/11 11:17:58;;;;;;;3.90;0.93;;;;;;;11.00;66.86;95216.34;4910582;29;20024;-78
2021/03/11 11:20:24;;;;;;;2.10;1.00;;;;;;;10.74;69.02;95217.69;4901628;29;20031;-78
2021/03/11 11:22:50;;;;;;;3.03;1.00;;;;;;;10.69;68.77;95221.88;4905309;29;20043;-78
2021/03/11 11:25:15;;;;;;;10.63;5.27;;;;;;;10.64;68.33;95209.28;4924536;29;20096;-78
2021/03/11 11:27:41;;;;;;;2.50;1.13;;;;;;;10.55;68.76;95218.28;4928429;29;20040;-78
2021/03/11 11:30:12;;;;;;;1.73;0.93;;;;;;;10.65;68.04;95215.34;4919104;29;20273;-79
2021/03/11 11:32:38;;;;;;;2.80;1.10;;;;;;;10.71;67.54;95218.06;4921671;29;20034;-77
2021/03/11 11:35:04;;;;;;;3.43;1.20;;;;;;;10.82;67.15;95216.75;4899150;29;20024;-78
2021/03/11 11:37:31;;;;;;;7.57;1.60;;;;;;;10.88;66.71;95217.84;4924863;29;20706;-77
2021/03/11 11:39:57;;;;;;;3.43;0.93;;;;;;;10.96;66.93;95212.47;4923172;29;20226;-77
2021/03/11 11:42:23;;;;;;;6.20;2.50;;;;;;;10.99;68.28;95220.78;4921819;29;20405;-78
2021/03/11 11:44:49;;;;;;;4.10;1.10;;;;;;;10.74;71.03;95222.16;4899861;29;20028;-77
2021/03/11 11:47:15;;;;;;;3.17;1.10;;;;;;;10.50;72.15;95231.97;4903232;29;20040;-78